sensor_id;sensor_type;location;lat;lon;timestamp;P1;durP1;ratioP1;P2;durP2;ratioP2
66607;SDS011;53462;39.616;8.824;2023-02-01T00:00:10;25.80;;;10.07;;
66607;SDS011;53462;39.616;8.824;2023-02-01T00:02:37;24.52;;;9.90;;
66607;SDS011;53462;39.616;8.824;2023-02-01T00:05:08;19.15;;;8.80;;
66607;SDS011;53462;39.616;8.824;2023-02-01T00:07:35;24.10;;;9.15;;
66607;SDS011;53462;39.616;8.824;2023-02-01T00:10:02;18.55;;;8.45;;
66607;SDS011;53462;39.616;8.824;2023-02-01T00:12:32;16.58;;;7.97;;
66607;SDS011;53462;39.616;8.824;2023-02-01T00:14:58;21.45;;;9.23;;
66607;SDS011;53462;39.616;8.824;2023-02-01T00:17:24;21.13;;;10.60;;
66607;SDS011;53462;39.616;8.824;2023-02-01T00:19:50;22.13;;;10.73;;
66607;SDS011;53462;39.616;8.824;2023-02-01T00:22:16;19.73;;;8.63;;
66607;SDS011;53462;39.616;8.824;2023-02-01T00:24:42;20.60;;;8.88;;
66607;SDS011;53462;39.616;8.824;2023-02-01T00:27:08;25.00;;;9.18;;
66607;SDS011;53462;39.616;8.824;2023-02-01T00:29:33;15.68;;;6.60;;
66607;SDS011;53462;39.616;8.824;2023-02-01T00:31:59;14.93;;;5.57;;
66607;SDS011;53462;39.616;8.824;2023-02-01T00:34:25;14.57;;;5.90;;
66607;SDS011;53462;39.616;8.824;2023-02-01T00:36:51;16.30;;;6.22;;
66607;SDS011;53462;39.616;8.824;2023-02-01T00:39:17;12.00;;;5.72;;
66607;SDS011;53462;39.616;8.824;2023-02-01T00:41:44;10.93;;;4.55;;
66607;SDS011;53462;39.616;8.824;2023-02-01T00:44:10;8.90;;;3.75;;
66607;SDS011;53462;39.616;8.824;2023-02-01T00:46:36;7.72;;;3.33;;
66607;SDS011;53462;39.616;8.824;2023-02-01T00:49:02;8.35;;;3.85;;
66607;SDS011;53462;39.616;8.824;2023-02-01T00:51:28;9.95;;;3.95;;
66607;SDS011;53462;39.616;8.824;2023-02-01T00:53:55;11.30;;;3.20;;
66607;SDS011;53462;39.616;8.824;2023-02-01T00:56:21;7.55;;;3.70;;
66607;SDS011;53462;39.616;8.824;2023-02-01T00:58:47;9.90;;;3.42;;
66607;SDS011;53462;39.616;8.824;2023-02-01T01:01:18;13.10;;;4.30;;
66607;SDS011;53462;39.616;8.824;2023-02-01T01:03:49;20.13;;;7.13;;
66607;SDS011;53462;39.616;8.824;2023-02-01T01:06:20;21.38;;;7.50;;
66607;SDS011;53462;39.616;8.824;2023-02-01T01:08:48;16.45;;;5.75;;
66607;SDS011;53462;39.616;8.824;2023-02-01T01:11:22;14.55;;;5.05;;
66607;SDS011;53462;39.616;8.824;2023-02-01T01:13:50;10.50;;;4.82;;
66607;SDS011;53462;39.616;8.824;2023-02-01T01:16:18;13.27;;;4.13;;
66607;SDS011;53462;39.616;8.824;2023-02-01T01:18:45;8.40;;;3.55;;
66607;SDS011;53462;39.616;8.824;2023-02-01T01:21:13;9.10;;;3.65;;
66607;SDS011;53462;39.616;8.824;2023-02-01T01:23:40;13.90;;;4.30;;
66607;SDS011;53462;39.616;8.824;2023-02-01T01:26:24;7.88;;;3.90;;
66607;SDS011;53462;39.616;8.824;2023-02-01T01:28:51;7.85;;;3.60;;
66607;SDS011;53462;39.616;8.824;2023-02-01T01:31:19;8.02;;;3.83;;
66607;SDS011;53462;39.616;8.824;2023-02-01T01:33:52;6.90;;;3.13;;
66607;SDS011;53462;39.616;8.824;2023-02-01T01:36:20;8.07;;;3.58;;
66607;SDS011;53462;39.616;8.824;2023-02-01T01:38:47;9.70;;;3.22;;
66607;SDS011;53462;39.616;8.824;2023-02-01T01:41:15;5.30;;;2.78;;
66607;SDS011;53462;39.616;8.824;2023-02-01T01:46:26;6.95;;;2.97;;
66607;SDS011;53462;39.616;8.824;2023-02-01T01:48:57;6.90;;;3.22;;
66607;SDS011;53462;39.616;8.824;2023-02-01T01:51:35;6.68;;;3.03;;
66607;SDS011;53462;39.616;8.824;2023-02-01T01:54:13;7.47;;;2.92;;
66607;SDS011;53462;39.616;8.824;2023-02-01T01:56:42;9.65;;;3.10;;
66607;SDS011;53462;39.616;8.824;2023-02-01T01:59:11;8.15;;;3.13;;
66607;SDS011;53462;39.616;8.824;2023-02-01T02:01:38;8.95;;;3.40;;
66607;SDS011;53462;39.616;8.824;2023-02-01T02:04:04;8.07;;;3.65;;
66607;SDS011;53462;39.616;8.824;2023-02-01T02:06:39;8.65;;;3.30;;
66607;SDS011;53462;39.616;8.824;2023-02-01T02:09:06;9.32;;;3.40;;
66607;SDS011;53462;39.616;8.824;2023-02-01T02:11:32;8.07;;;3.53;;
66607;SDS011;53462;39.616;8.824;2023-02-01T02:13:58;10.35;;;3.78;;
66607;SDS011;53462;39.616;8.824;2023-02-01T02:35:49;13.60;;;4.35;;
66607;SDS011;53462;39.616;8.824;2023-02-01T02:41:19;11.65;;;4.97;;
66607;SDS011;53462;39.616;8.824;2023-02-01T02:44:17;12.30;;;4.10;;
66607;SDS011;53462;39.616;8.824;2023-02-01T02:47:16;7.93;;;3.40;;
66607;SDS011;53462;39.616;8.824;2023-02-01T02:52:58;9.05;;;3.63;;
66607;SDS011;53462;39.616;8.824;2023-02-01T02:56:08;9.32;;;3.92;;
66607;SDS011;53462;39.616;8.824;2023-02-01T02:58:57;8.68;;;3.75;;
66607;SDS011;53462;39.616;8.824;2023-02-01T03:01:42;7.70;;;3.75;;
66607;SDS011;53462;39.616;8.824;2023-02-01T03:04:27;7.55;;;3.78;;
66607;SDS011;53462;39.616;8.824;2023-02-01T03:06:53;7.63;;;3.45;;
66607;SDS011;53462;39.616;8.824;2023-02-01T03:09:30;9.00;;;4.13;;
66607;SDS011;53462;39.616;8.824;2023-02-01T03:12:00;7.68;;;3.55;;
66607;SDS011;53462;39.616;8.824;2023-02-01T03:15:06;9.05;;;3.25;;
66607;SDS011;53462;39.616;8.824;2023-02-01T03:17:38;8.93;;;3.80;;
66607;SDS011;53462;39.616;8.824;2023-02-01T03:20:06;9.63;;;3.38;;
66607;SDS011;53462;39.616;8.824;2023-02-01T03:22:34;10.40;;;3.53;;
66607;SDS011;53462;39.616;8.824;2023-02-01T03:28:07;8.38;;;3.70;;
66607;SDS011;53462;39.616;8.824;2023-02-01T03:30:38;8.38;;;3.80;;
66607;SDS011;53462;39.616;8.824;2023-02-01T03:33:09;6.78;;;3.22;;
66607;SDS011;53462;39.616;8.824;2023-02-01T03:38:38;9.35;;;4.10;;
66607;SDS011;53462;39.616;8.824;2023-02-01T03:41:49;14.25;;;4.25;;
66607;SDS011;53462;39.616;8.824;2023-02-01T03:44:25;9.00;;;3.50;;
66607;SDS011;53462;39.616;8.824;2023-02-01T03:49:35;9.55;;;3.20;;
66607;SDS011;53462;39.616;8.824;2023-02-01T03:52:06;7.82;;;2.88;;
66607;SDS011;53462;39.616;8.824;2023-02-01T03:54:36;6.10;;;2.40;;
66607;SDS011;53462;39.616;8.824;2023-02-01T03:57:05;8.02;;;2.78;;
66607;SDS011;53462;39.616;8.824;2023-02-01T03:59:38;7.90;;;3.00;;
66607;SDS011;53462;39.616;8.824;2023-02-01T04:02:05;7.30;;;3.40;;
66607;SDS011;53462;39.616;8.824;2023-02-01T04:04:31;9.57;;;3.83;;
66607;SDS011;53462;39.616;8.824;2023-02-01T04:06:58;9.75;;;3.28;;
66607;SDS011;53462;39.616;8.824;2023-02-01T04:09:24;7.13;;;3.10;;
66607;SDS011;53462;39.616;8.824;2023-02-01T04:11:50;6.95;;;2.90;;
66607;SDS011;53462;39.616;8.824;2023-02-01T04:14:16;11.23;;;2.90;;
66607;SDS011;53462;39.616;8.824;2023-02-01T04:16:41;8.00;;;2.60;;
66607;SDS011;53462;39.616;8.824;2023-02-01T04:19:07;6.32;;;2.30;;
66607;SDS011;53462;39.616;8.824;2023-02-01T04:21:34;9.50;;;3.55;;
66607;SDS011;53462;39.616;8.824;2023-02-01T04:23:59;6.28;;;3.28;;
66607;SDS011;53462;39.616;8.824;2023-02-01T04:26:25;8.20;;;3.10;;
66607;SDS011;53462;39.616;8.824;2023-02-01T04:28:51;6.93;;;3.08;;
66607;SDS011;53462;39.616;8.824;2023-02-01T04:31:18;8.32;;;3.15;;
66607;SDS011;53462;39.616;8.824;2023-02-01T04:33:54;7.38;;;2.83;;
66607;SDS011;53462;39.616;8.824;2023-02-01T04:36:22;10.77;;;2.63;;
66607;SDS011;53462;39.616;8.824;2023-02-01T04:38:49;7.55;;;2.63;;
66607;SDS011;53462;39.616;8.824;2023-02-01T04:41:16;7.50;;;2.70;;
66607;SDS011;53462;39.616;8.824;2023-02-01T04:43:48;4.63;;;2.20;;
66607;SDS011;53462;39.616;8.824;2023-02-01T04:46:15;6.75;;;2.30;;
66607;SDS011;53462;39.616;8.824;2023-02-01T04:48:41;3.15;;;1.75;;
66607;SDS011;53462;39.616;8.824;2023-02-01T04:51:07;5.90;;;1.92;;
66607;SDS011;53462;39.616;8.824;2023-02-01T04:53:33;4.10;;;2.00;;
66607;SDS011;53462;39.616;8.824;2023-02-01T04:55:59;4.38;;;1.90;;
66607;SDS011;53462;39.616;8.824;2023-02-01T04:58:25;6.10;;;2.03;;
66607;SDS011;53462;39.616;8.824;2023-02-01T05:00:51;7.45;;;2.13;;
66607;SDS011;53462;39.616;8.824;2023-02-01T05:03:17;7.55;;;3.00;;
66607;SDS011;53462;39.616;8.824;2023-02-01T05:05:43;7.53;;;3.75;;
66607;SDS011;53462;39.616;8.824;2023-02-01T05:08:09;6.72;;;3.50;;
66607;SDS011;53462;39.616;8.824;2023-02-01T05:10:35;6.18;;;3.92;;
66607;SDS011;53462;39.616;8.824;2023-02-01T05:13:01;8.93;;;4.43;;
66607;SDS011;53462;39.616;8.824;2023-02-01T05:15:45;10.88;;;4.30;;
66607;SDS011;53462;39.616;8.824;2023-02-01T05:18:11;10.68;;;4.95;;
66607;SDS011;53462;39.616;8.824;2023-02-01T05:20:37;10.45;;;5.20;;
66607;SDS011;53462;39.616;8.824;2023-02-01T05:23:03;10.20;;;4.97;;
66607;SDS011;53462;39.616;8.824;2023-02-01T05:25:30;23.35;;;10.98;;
66607;SDS011;53462;39.616;8.824;2023-02-01T05:27:56;31.40;;;15.20;;
66607;SDS011;53462;39.616;8.824;2023-02-01T05:30:22;18.02;;;10.05;;
66607;SDS011;53462;39.616;8.824;2023-02-01T05:32:51;15.40;;;7.22;;
66607;SDS011;53462;39.616;8.824;2023-02-01T05:35:18;14.40;;;6.88;;
66607;SDS011;53462;39.616;8.824;2023-02-01T05:37:44;13.88;;;7.50;;
66607;SDS011;53462;39.616;8.824;2023-02-01T05:40:11;13.65;;;7.72;;
66607;SDS011;53462;39.616;8.824;2023-02-01T05:42:37;19.92;;;9.93;;
66607;SDS011;53462;39.616;8.824;2023-02-01T05:45:03;18.38;;;8.38;;
66607;SDS011;53462;39.616;8.824;2023-02-01T05:47:30;15.68;;;7.95;;
66607;SDS011;53462;39.616;8.824;2023-02-01T05:49:56;14.45;;;8.05;;
66607;SDS011;53462;39.616;8.824;2023-02-01T05:52:22;16.58;;;7.38;;
66607;SDS011;53462;39.616;8.824;2023-02-01T05:54:48;13.38;;;7.35;;
66607;SDS011;53462;39.616;8.824;2023-02-01T05:57:15;15.00;;;8.48;;
66607;SDS011;53462;39.616;8.824;2023-02-01T05:59:41;16.17;;;9.15;;
66607;SDS011;53462;39.616;8.824;2023-02-01T06:02:10;16.17;;;8.45;;
66607;SDS011;53462;39.616;8.824;2023-02-01T06:04:37;14.98;;;8.57;;
66607;SDS011;53462;39.616;8.824;2023-02-01T06:07:03;15.18;;;7.50;;
66607;SDS011;53462;39.616;8.824;2023-02-01T06:09:29;12.85;;;6.90;;
66607;SDS011;53462;39.616;8.824;2023-02-01T06:11:55;12.00;;;6.40;;
66607;SDS011;53462;39.616;8.824;2023-02-01T06:14:21;21.48;;;7.40;;
66607;SDS011;53462;39.616;8.824;2023-02-01T06:16:47;14.68;;;6.35;;
66607;SDS011;53462;39.616;8.824;2023-02-01T06:19:13;13.25;;;6.05;;
66607;SDS011;53462;39.616;8.824;2023-02-01T06:21:39;17.83;;;7.10;;
66607;SDS011;53462;39.616;8.824;2023-02-01T06:24:05;15.93;;;8.32;;
66607;SDS011;53462;39.616;8.824;2023-02-01T06:26:31;20.00;;;8.65;;
66607;SDS011;53462;39.616;8.824;2023-02-01T06:28:57;23.55;;;13.75;;
66607;SDS011;53462;39.616;8.824;2023-02-01T06:31:23;19.90;;;11.05;;
66607;SDS011;53462;39.616;8.824;2023-02-01T06:33:51;21.17;;;10.35;;
66607;SDS011;53462;39.616;8.824;2023-02-01T06:36:17;21.52;;;11.77;;
66607;SDS011;53462;39.616;8.824;2023-02-01T06:38:45;34.30;;;16.15;;
66607;SDS011;53462;39.616;8.824;2023-02-01T06:41:12;58.05;;;24.15;;
66607;SDS011;53462;39.616;8.824;2023-02-01T06:43:38;48.95;;;22.75;;
66607;SDS011;53462;39.616;8.824;2023-02-01T06:46:05;51.80;;;23.17;;
66607;SDS011;53462;39.616;8.824;2023-02-01T06:48:34;47.90;;;22.27;;
66607;SDS011;53462;39.616;8.824;2023-02-01T06:51:00;63.70;;;29.83;;
66607;SDS011;53462;39.616;8.824;2023-02-01T06:53:26;56.45;;;27.00;;
66607;SDS011;53462;39.616;8.824;2023-02-01T06:55:56;47.40;;;19.80;;
66607;SDS011;53462;39.616;8.824;2023-02-01T06:58:32;55.37;;;24.77;;
66607;SDS011;53462;39.616;8.824;2023-02-01T07:01:05;39.25;;;19.80;;
66607;SDS011;53462;39.616;8.824;2023-02-01T07:03:31;41.13;;;20.40;;
66607;SDS011;53462;39.616;8.824;2023-02-01T07:05:57;41.03;;;19.27;;
66607;SDS011;53462;39.616;8.824;2023-02-01T07:08:24;33.28;;;17.55;;
66607;SDS011;53462;39.616;8.824;2023-02-01T07:10:52;33.75;;;19.08;;
66607;SDS011;53462;39.616;8.824;2023-02-01T07:13:18;34.10;;;18.30;;
66607;SDS011;53462;39.616;8.824;2023-02-01T07:15:44;68.00;;;33.80;;
66607;SDS011;53462;39.616;8.824;2023-02-01T07:18:13;45.03;;;21.08;;
66607;SDS011;53462;39.616;8.824;2023-02-01T07:20:39;47.35;;;23.17;;
66607;SDS011;53462;39.616;8.824;2023-02-01T07:23:06;42.38;;;21.83;;
66607;SDS011;53462;39.616;8.824;2023-02-01T07:25:34;33.80;;;18.52;;
66607;SDS011;53462;39.616;8.824;2023-02-01T07:28:00;46.53;;;24.60;;
66607;SDS011;53462;39.616;8.824;2023-02-01T07:30:26;72.82;;;36.15;;
66607;SDS011;53462;39.616;8.824;2023-02-01T07:32:52;37.58;;;20.58;;
66607;SDS011;53462;39.616;8.824;2023-02-01T07:35:18;45.80;;;21.02;;
66607;SDS011;53462;39.616;8.824;2023-02-01T07:37:44;42.10;;;21.48;;
66607;SDS011;53462;39.616;8.824;2023-02-01T07:40:10;56.17;;;25.77;;
66607;SDS011;53462;39.616;8.824;2023-02-01T07:42:36;33.13;;;17.92;;
66607;SDS011;53462;39.616;8.824;2023-02-01T07:45:03;50.58;;;24.52;;
66607;SDS011;53462;39.616;8.824;2023-02-01T07:47:29;105.63;;;52.42;;
66607;SDS011;53462;39.616;8.824;2023-02-01T07:49:55;77.22;;;41.30;;
66607;SDS011;53462;39.616;8.824;2023-02-01T07:52:21;86.72;;;37.00;;
66607;SDS011;53462;39.616;8.824;2023-02-01T07:54:46;96.47;;;45.97;;
66607;SDS011;53462;39.616;8.824;2023-02-01T07:57:12;85.82;;;41.10;;
66607;SDS011;53462;39.616;8.824;2023-02-01T07:59:38;94.15;;;43.58;;
66607;SDS011;53462;39.616;8.824;2023-02-01T08:02:24;88.70;;;43.70;;
66607;SDS011;53462;39.616;8.824;2023-02-01T08:04:50;106.90;;;55.25;;
66607;SDS011;53462;39.616;8.824;2023-02-01T08:07:16;129.35;;;63.20;;
66607;SDS011;53462;39.616;8.824;2023-02-01T08:09:42;78.03;;;40.95;;
66607;SDS011;53462;39.616;8.824;2023-02-01T08:12:08;82.70;;;47.55;;
66607;SDS011;53462;39.616;8.824;2023-02-01T08:14:33;93.88;;;48.45;;
66607;SDS011;53462;39.616;8.824;2023-02-01T08:16:59;83.97;;;43.30;;
66607;SDS011;53462;39.616;8.824;2023-02-01T08:19:25;65.47;;;36.50;;
66607;SDS011;53462;39.616;8.824;2023-02-01T08:21:51;43.95;;;24.30;;
66607;SDS011;53462;39.616;8.824;2023-02-01T08:24:17;40.60;;;22.52;;
66607;SDS011;53462;39.616;8.824;2023-02-01T08:26:43;42.72;;;22.67;;
66607;SDS011;53462;39.616;8.824;2023-02-01T08:29:09;37.53;;;22.45;;
66607;SDS011;53462;39.616;8.824;2023-02-01T08:31:40;41.95;;;24.73;;
66607;SDS011;53462;39.616;8.824;2023-02-01T08:34:07;50.80;;;27.52;;
66607;SDS011;53462;39.616;8.824;2023-02-01T08:36:34;51.78;;;29.33;;
66607;SDS011;53462;39.616;8.824;2023-02-01T08:39:00;51.85;;;28.80;;
66607;SDS011;53462;39.616;8.824;2023-02-01T08:41:30;51.35;;;27.40;;
66607;SDS011;53462;39.616;8.824;2023-02-01T08:43:56;49.08;;;29.25;;
66607;SDS011;53462;39.616;8.824;2023-02-01T08:46:23;47.42;;;27.63;;
66607;SDS011;53462;39.616;8.824;2023-02-01T08:48:49;47.60;;;26.42;;
66607;SDS011;53462;39.616;8.824;2023-02-01T08:51:16;36.38;;;21.52;;
66607;SDS011;53462;39.616;8.824;2023-02-01T08:53:43;38.75;;;21.15;;
66607;SDS011;53462;39.616;8.824;2023-02-01T08:56:10;40.25;;;20.52;;
66607;SDS011;53462;39.616;8.824;2023-02-01T08:58:38;33.95;;;20.45;;
66607;SDS011;53462;39.616;8.824;2023-02-01T09:01:05;31.23;;;17.17;;
66607;SDS011;53462;39.616;8.824;2023-02-01T09:03:32;29.42;;;14.38;;
66607;SDS011;53462;39.616;8.824;2023-02-01T09:06:16;23.23;;;12.40;;
66607;SDS011;53462;39.616;8.824;2023-02-01T09:08:43;16.83;;;10.60;;
66607;SDS011;53462;39.616;8.824;2023-02-01T09:11:16;23.13;;;10.20;;
66607;SDS011;53462;39.616;8.824;2023-02-01T09:13:46;15.68;;;7.90;;
66607;SDS011;53462;39.616;8.824;2023-02-01T09:16:12;15.25;;;7.53;;
66607;SDS011;53462;39.616;8.824;2023-02-01T09:18:38;11.07;;;4.85;;
66607;SDS011;53462;39.616;8.824;2023-02-01T09:21:05;8.95;;;3.97;;
66607;SDS011;53462;39.616;8.824;2023-02-01T09:23:32;13.25;;;3.75;;
66607;SDS011;53462;39.616;8.824;2023-02-01T09:25:59;9.02;;;3.70;;
66607;SDS011;53462;39.616;8.824;2023-02-01T09:28:32;8.93;;;3.80;;
66607;SDS011;53462;39.616;8.824;2023-02-01T09:30:58;5.45;;;2.63;;
66607;SDS011;53462;39.616;8.824;2023-02-01T09:33:25;7.43;;;3.30;;
66607;SDS011;53462;39.616;8.824;2023-02-01T09:35:56;11.30;;;4.28;;
66607;SDS011;53462;39.616;8.824;2023-02-01T09:38:26;7.55;;;2.70;;
66607;SDS011;53462;39.616;8.824;2023-02-01T09:40:52;10.13;;;5.43;;
66607;SDS011;53462;39.616;8.824;2023-02-01T09:43:21;8.88;;;3.55;;
66607;SDS011;53462;39.616;8.824;2023-02-01T09:48:47;5.03;;;2.40;;
66607;SDS011;53462;39.616;8.824;2023-02-01T09:51:16;6.93;;;2.47;;
66607;SDS011;53462;39.616;8.824;2023-02-01T09:53:55;7.60;;;3.10;;
66607;SDS011;53462;39.616;8.824;2023-02-01T09:57:01;10.45;;;4.78;;
66607;SDS011;53462;39.616;8.824;2023-02-01T09:59:49;12.50;;;4.50;;
66607;SDS011;53462;39.616;8.824;2023-02-01T10:02:26;11.10;;;5.22;;
66607;SDS011;53462;39.616;8.824;2023-02-01T10:04:54;11.77;;;4.97;;
66607;SDS011;53462;39.616;8.824;2023-02-01T10:31:42;12.53;;;3.63;;
66607;SDS011;53462;39.616;8.824;2023-02-01T10:34:20;14.85;;;7.03;;
66607;SDS011;53462;39.616;8.824;2023-02-01T10:36:54;11.40;;;6.82;;
66607;SDS011;53462;39.616;8.824;2023-02-01T10:39:22;7.03;;;3.78;;
66607;SDS011;53462;39.616;8.824;2023-02-01T10:41:48;13.20;;;6.60;;
66607;SDS011;53462;39.616;8.824;2023-02-01T10:44:15;8.50;;;4.78;;
66607;SDS011;53462;39.616;8.824;2023-02-01T10:46:52;16.52;;;9.38;;
66607;SDS011;53462;39.616;8.824;2023-02-01T10:49:20;16.55;;;9.68;;
66607;SDS011;53462;39.616;8.824;2023-02-01T10:51:57;13.10;;;7.13;;
66607;SDS011;53462;39.616;8.824;2023-02-01T10:54:34;24.33;;;13.40;;
66607;SDS011;53462;39.616;8.824;2023-02-01T10:57:06;21.38;;;13.65;;
66607;SDS011;53462;39.616;8.824;2023-02-01T10:59:44;11.10;;;6.88;;
66607;SDS011;53462;39.616;8.824;2023-02-01T11:02:16;9.90;;;5.75;;
66607;SDS011;53462;39.616;8.824;2023-02-01T11:04:43;7.22;;;4.18;;
66607;SDS011;53462;39.616;8.824;2023-02-01T11:09:52;9.50;;;4.25;;
66607;SDS011;53462;39.616;8.824;2023-02-01T11:12:25;7.35;;;3.60;;
66607;SDS011;53462;39.616;8.824;2023-02-01T11:17:46;7.70;;;3.83;;
66607;SDS011;53462;39.616;8.824;2023-02-01T11:20:21;8.85;;;3.17;;
66607;SDS011;53462;39.616;8.824;2023-02-01T11:23:03;10.23;;;5.10;;
66607;SDS011;53462;39.616;8.824;2023-02-01T11:25:29;6.38;;;2.60;;
66607;SDS011;53462;39.616;8.824;2023-02-01T11:28:00;7.40;;;3.45;;
66607;SDS011;53462;39.616;8.824;2023-02-01T11:30:34;7.53;;;3.60;;
66607;SDS011;53462;39.616;8.824;2023-02-01T11:33:04;10.80;;;4.90;;
66607;SDS011;53462;39.616;8.824;2023-02-01T11:35:31;8.05;;;3.28;;
66607;SDS011;53462;39.616;8.824;2023-02-01T11:37:58;8.75;;;2.60;;
66607;SDS011;53462;39.616;8.824;2023-02-01T11:40:29;7.97;;;3.55;;
66607;SDS011;53462;39.616;8.824;2023-02-01T11:43:07;8.77;;;3.80;;
66607;SDS011;53462;39.616;8.824;2023-02-01T11:45:38;13.32;;;6.97;;
66607;SDS011;53462;39.616;8.824;2023-02-01T11:48:09;5.43;;;3.30;;
66607;SDS011;53462;39.616;8.824;2023-02-01T11:50:49;8.75;;;2.80;;
66607;SDS011;53462;39.616;8.824;2023-02-01T11:56:36;6.93;;;2.78;;
66607;SDS011;53462;39.616;8.824;2023-02-01T12:12:14;12.23;;;5.88;;
66607;SDS011;53462;39.616;8.824;2023-02-01T12:31:13;21.30;;;11.30;;
66607;SDS011;53462;39.616;8.824;2023-02-01T12:33:56;43.58;;;23.25;;
66607;SDS011;53462;39.616;8.824;2023-02-01T12:55:10;45.42;;;7.72;;
66607;SDS011;53462;39.616;8.824;2023-02-01T12:57:42;13.45;;;6.20;;
66607;SDS011;53462;39.616;8.824;2023-02-01T13:00:16;13.23;;;6.45;;
66607;SDS011;53462;39.616;8.824;2023-02-01T13:03:03;10.10;;;5.65;;
66607;SDS011;53462;39.616;8.824;2023-02-01T13:05:33;8.95;;;4.35;;
66607;SDS011;53462;39.616;8.824;2023-02-01T13:08:10;8.40;;;4.22;;
66607;SDS011;53462;39.616;8.824;2023-02-01T13:10:43;6.82;;;3.40;;
66607;SDS011;53462;39.616;8.824;2023-02-01T13:16:18;6.63;;;4.10;;
66607;SDS011;53462;39.616;8.824;2023-02-01T13:19:13;8.20;;;3.90;;
66607;SDS011;53462;39.616;8.824;2023-02-01T13:21:53;7.35;;;3.50;;
66607;SDS011;53462;39.616;8.824;2023-02-01T13:24:27;8.52;;;3.10;;
66607;SDS011;53462;39.616;8.824;2023-02-01T13:27:12;8.77;;;5.30;;
66607;SDS011;53462;39.616;8.824;2023-02-01T13:29:48;22.70;;;9.65;;
66607;SDS011;53462;39.616;8.824;2023-02-01T13:35:28;7.50;;;3.58;;
66607;SDS011;53462;39.616;8.824;2023-02-01T13:43:47;12.32;;;2.65;;
66607;SDS011;53462;39.616;8.824;2023-02-01T13:46:15;10.88;;;3.60;;
66607;SDS011;53462;39.616;8.824;2023-02-01T13:51:13;7.70;;;2.90;;
66607;SDS011;53462;39.616;8.824;2023-02-01T13:53:44;6.07;;;2.83;;
66607;SDS011;53462;39.616;8.824;2023-02-01T13:56:14;6.15;;;2.75;;
66607;SDS011;53462;39.616;8.824;2023-02-01T13:58:45;12.02;;;6.65;;
66607;SDS011;53462;39.616;8.824;2023-02-01T14:03:54;6.22;;;3.75;;
66607;SDS011;53462;39.616;8.824;2023-02-01T14:09:12;7.07;;;4.30;;
66607;SDS011;53462;39.616;8.824;2023-02-01T14:16:42;8.18;;;3.22;;
66607;SDS011;53462;39.616;8.824;2023-02-01T14:19:24;8.55;;;3.90;;
66607;SDS011;53462;39.616;8.824;2023-02-01T14:21:53;14.57;;;6.95;;
66607;SDS011;53462;39.616;8.824;2023-02-01T14:24:26;12.35;;;5.32;;
66607;SDS011;53462;39.616;8.824;2023-02-01T14:26:56;7.72;;;3.10;;
66607;SDS011;53462;39.616;8.824;2023-02-01T14:29:42;8.73;;;3.22;;
66607;SDS011;53462;39.616;8.824;2023-02-01T14:32:20;7.15;;;3.13;;
66607;SDS011;53462;39.616;8.824;2023-02-01T14:42:39;9.18;;;3.08;;
66607;SDS011;53462;39.616;8.824;2023-02-01T14:47:52;7.25;;;2.80;;
66607;SDS011;53462;39.616;8.824;2023-02-01T14:57:55;4.30;;;2.08;;
66607;SDS011;53462;39.616;8.824;2023-02-01T15:00:25;6.15;;;2.20;;
66607;SDS011;53462;39.616;8.824;2023-02-01T15:02:55;7.20;;;2.85;;
66607;SDS011;53462;39.616;8.824;2023-02-01T15:05:41;8.70;;;2.72;;
66607;SDS011;53462;39.616;8.824;2023-02-01T15:08:12;4.45;;;1.80;;
66607;SDS011;53462;39.616;8.824;2023-02-01T15:10:43;4.95;;;1.98;;
66607;SDS011;53462;39.616;8.824;2023-02-01T15:13:17;4.90;;;1.80;;
66607;SDS011;53462;39.616;8.824;2023-02-01T15:18:37;5.60;;;1.85;;
66607;SDS011;53462;39.616;8.824;2023-02-01T15:21:04;6.10;;;2.20;;
66607;SDS011;53462;39.616;8.824;2023-02-01T15:23:31;5.95;;;1.90;;
66607;SDS011;53462;39.616;8.824;2023-02-01T15:25:57;7.40;;;2.28;;
66607;SDS011;53462;39.616;8.824;2023-02-01T15:28:25;4.95;;;1.70;;
66607;SDS011;53462;39.616;8.824;2023-02-01T15:30:52;8.18;;;2.10;;
66607;SDS011;53462;39.616;8.824;2023-02-01T15:33:21;4.85;;;1.98;;
66607;SDS011;53462;39.616;8.824;2023-02-01T15:35:48;5.50;;;2.17;;
66607;SDS011;53462;39.616;8.824;2023-02-01T15:43:19;5.82;;;2.10;;
66607;SDS011;53462;39.616;8.824;2023-02-01T15:45:45;5.80;;;1.80;;
66607;SDS011;53462;39.616;8.824;2023-02-01T15:48:11;6.18;;;1.55;;
66607;SDS011;53462;39.616;8.824;2023-02-01T15:50:45;5.90;;;1.70;;
66607;SDS011;53462;39.616;8.824;2023-02-01T15:53:14;5.05;;;1.60;;
66607;SDS011;53462;39.616;8.824;2023-02-01T15:55:45;7.38;;;1.92;;
66607;SDS011;53462;39.616;8.824;2023-02-01T15:58:20;6.13;;;1.95;;
66607;SDS011;53462;39.616;8.824;2023-02-01T16:00:49;8.90;;;2.40;;
66607;SDS011;53462;39.616;8.824;2023-02-01T16:05:59;7.38;;;2.20;;
66607;SDS011;53462;39.616;8.824;2023-02-01T16:08:27;4.82;;;1.60;;
66607;SDS011;53462;39.616;8.824;2023-02-01T16:10:59;6.05;;;1.80;;
66607;SDS011;53462;39.616;8.824;2023-02-01T16:13:39;7.32;;;1.90;;
66607;SDS011;53462;39.616;8.824;2023-02-01T16:16:07;7.20;;;1.60;;
66607;SDS011;53462;39.616;8.824;2023-02-01T16:18:42;5.78;;;1.98;;
66607;SDS011;53462;39.616;8.824;2023-02-01T16:21:08;8.15;;;3.42;;
66607;SDS011;53462;39.616;8.824;2023-02-01T16:23:35;6.30;;;2.17;;
66607;SDS011;53462;39.616;8.824;2023-02-01T16:26:01;6.88;;;2.95;;
66607;SDS011;53462;39.616;8.824;2023-02-01T16:28:28;7.07;;;2.13;;
66607;SDS011;53462;39.616;8.824;2023-02-01T16:30:54;12.52;;;2.67;;
66607;SDS011;53462;39.616;8.824;2023-02-01T16:33:21;10.27;;;2.50;;
66607;SDS011;53462;39.616;8.824;2023-02-01T16:35:48;8.05;;;3.83;;
66607;SDS011;53462;39.616;8.824;2023-02-01T16:38:15;9.05;;;3.40;;
66607;SDS011;53462;39.616;8.824;2023-02-01T16:40:45;7.40;;;3.28;;
66607;SDS011;53462;39.616;8.824;2023-02-01T16:43:16;8.13;;;3.22;;
66607;SDS011;53462;39.616;8.824;2023-02-01T16:45:43;10.32;;;3.20;;
66607;SDS011;53462;39.616;8.824;2023-02-01T16:48:16;9.73;;;3.05;;
66607;SDS011;53462;39.616;8.824;2023-02-01T16:50:47;10.80;;;4.65;;
66607;SDS011;53462;39.616;8.824;2023-02-01T16:53:17;10.90;;;5.70;;
66607;SDS011;53462;39.616;8.824;2023-02-01T16:55:43;10.65;;;4.00;;
66607;SDS011;53462;39.616;8.824;2023-02-01T16:58:11;7.10;;;3.22;;
66607;SDS011;53462;39.616;8.824;2023-02-01T17:00:37;9.55;;;3.45;;
66607;SDS011;53462;39.616;8.824;2023-02-01T17:03:04;10.10;;;3.75;;
66607;SDS011;53462;39.616;8.824;2023-02-01T17:05:33;7.82;;;3.65;;
66607;SDS011;53462;39.616;8.824;2023-02-01T17:08:01;9.63;;;3.97;;
66607;SDS011;53462;39.616;8.824;2023-02-01T17:10:29;7.65;;;3.72;;
66607;SDS011;53462;39.616;8.824;2023-02-01T17:12:55;7.80;;;2.55;;
66607;SDS011;53462;39.616;8.824;2023-02-01T17:15:26;7.40;;;3.65;;
66607;SDS011;53462;39.616;8.824;2023-02-01T17:17:54;13.15;;;5.93;;
66607;SDS011;53462;39.616;8.824;2023-02-01T17:20:22;13.82;;;5.68;;
66607;SDS011;53462;39.616;8.824;2023-02-01T17:22:50;12.20;;;4.28;;
66607;SDS011;53462;39.616;8.824;2023-02-01T17:25:18;10.45;;;4.03;;
66607;SDS011;53462;39.616;8.824;2023-02-01T17:27:46;12.15;;;6.35;;
66607;SDS011;53462;39.616;8.824;2023-02-01T17:30:13;22.10;;;11.02;;
66607;SDS011;53462;39.616;8.824;2023-02-01T17:32:40;18.60;;;11.27;;
66607;SDS011;53462;39.616;8.824;2023-02-01T17:35:25;21.58;;;11.65;;
66607;SDS011;53462;39.616;8.824;2023-02-01T17:37:52;16.88;;;9.20;;
66607;SDS011;53462;39.616;8.824;2023-02-01T17:40:18;19.17;;;9.73;;
66607;SDS011;53462;39.616;8.824;2023-02-01T17:42:44;16.48;;;8.32;;
66607;SDS011;53462;39.616;8.824;2023-02-01T17:45:32;15.02;;;7.38;;
66607;SDS011;53462;39.616;8.824;2023-02-01T17:48:01;20.20;;;7.50;;